Time;durP1;ratioP1;P1;durP2;ratioP2;P2;SDS_P1;SDS_P2;PMS_P1;PMS_P2;Temp;Humidity;BMP_temperature;BMP_pressure;BME280_temperature;BME280_humidity;BME280_pressure;Samples;Min_cycle;Max_cycle;Signal;HPM_P1;HPM_P2
2023/11/11 00:01:22;;;;;;;1.27;0.50;;;;;;;;;;10184534;29;20059;-76
2023/11/11 00:06:25;;;;;;;0.40;0.40;;;;;;;;;;10163641;29;20052;-76
2023/11/11 00:11:35;;;;;;;1.15;0.40;;;;;;;;;;10172547;29;20052;-77
2023/11/11 00:16:38;;;;;;;0.50;0.40;;;;;;;;;;10170547;29;20066;-77
2023/11/11 00:21:44;;;;;;;0.60;0.50;;;;;;;;;;10179416;29;20084;-77
2023/11/11 00:26:49;;;;;;;0.85;0.50;;;;;;;;;;10182036;29;20056;-77
2023/11/11 00:31:52;;;;;;;0.75;0.40;;;;;;;;;;10176775;29;20478;-77
2023/11/11 00:36:56;;;;;;;1.98;0.68;;;;;;;;;;10166441;29;20051;-78
2023/11/11 00:42:01;;;;;;;0.90;0.38;;;;;;;;;;10181310;29;20099;-77
2023/11/11 00:47:04;;;;;;;2.90;0.40;;;;;;;;;;10178048;29;20112;-77
2023/11/11 00:52:08;;;;;;;0.52;0.35;;;;;;;;;;10182848;29;20409;-77
2023/11/11 00:57:13;;;;;;;0.50;0.38;;;;;;;;;;10169738;29;20051;-78
2023/11/11 01:02:17;;;;;;;0.25;0.20;;;;;;;;;;10188948;29;20487;-77
2023/11/11 01:07:20;;;;;;;0.47;0.30;;;;;;;;;;10182135;29;20054;-77
2023/11/11 01:12:25;;;;;;;0.30;0.30;;;;;;;;;;10181888;29;20072;-77
2023/11/11 01:17:28;;;;;;;0.30;0.30;;;;;;;;;;10189068;29;20122;-77
2023/11/11 01:22:32;;;;;;;0.50;0.40;;;;;;;;;;10179487;29;20056;-77
2023/11/11 01:27:37;;;;;;;0.30;0.30;;;;;;;;;;10192719;29;20040;-77
2023/11/11 01:32:41;;;;;;;0.40;0.40;;;;;;;;;;10188495;29;20059;-77
2023/11/11 01:37:45;;;;;;;0.32;0.32;;;;;;;;;;10184695;29;20058;-77
2023/11/11 01:42:50;;;;;;;0.40;0.40;;;;;;;;;;10192207;29;20063;-77
2023/11/11 01:47:54;;;;;;;0.35;0.35;;;;;;;;;;10189414;29;20067;-77
2023/11/11 01:52:57;;;;;;;0.85;0.30;;;;;;;;;;10183788;29;20071;-78
2023/11/11 01:58:04;;;;;;;0.30;0.30;;;;;;;;;;10188156;29;20139;-77
2023/11/11 02:03:08;;;;;;;3.83;0.30;;;;;;;;;;10175911;29;20780;-77
2023/11/11 02:08:11;;;;;;;0.40;0.40;;;;;;;;;;10173787;29;20040;-78
2023/11/11 02:13:17;;;;;;;0.60;0.60;;;;;;;;;;10191065;29;20528;-77
2023/11/11 02:18:20;;;;;;;0.40;0.32;;;;;;;;;;10186465;29;20056;-77
2023/11/11 02:23:30;;;;;;;0.40;0.40;;;;;;;;;;10164794;29;20416;-77
2023/11/11 02:28:34;;;;;;;0.40;0.40;;;;;;;;;;10187331;29;20059;-77
2023/11/11 02:33:37;;;;;;;0.40;0.40;;;;;;;;;;10191002;29;20060;-77
2023/11/11 02:38:44;;;;;;;0.40;0.40;;;;;;;;;;10185062;29;20079;-77
2023/11/11 02:43:47;;;;;;;0.30;0.30;;;;;;;;;;10190937;29;20071;-77
2023/11/11 02:48:51;;;;;;;0.30;0.30;;;;;;;;;;10184575;29;20684;-77
2023/11/11 02:53:55;;;;;;;0.70;0.70;;;;;;;;;;10191531;29;20095;-77
2023/11/11 02:58:59;;;;;;;0.40;0.38;;;;;;;;;;10187105;29;20043;-77
2023/11/11 03:04:04;;;;;;;2.97;0.63;;;;;;;;;;10172092;29;20048;-78
2023/11/11 03:09:09;;;;;;;0.55;0.50;;;;;;;;;;10182796;29;20059;-78
2023/11/11 03:14:13;;;;;;;0.40;0.40;;;;;;;;;;10182967;29;20059;-77
2023/11/11 03:19:17;;;;;;;1.08;0.40;;;;;;;;;;10189316;29;20051;-77
2023/11/11 03:24:22;;;;;;;0.40;0.40;;;;;;;;;;10190455;29;20126;-77
2023/11/11 03:29:25;;;;;;;0.52;0.50;;;;;;;;;;10229786;23;20052;-78
2023/11/11 03:34:29;;;;;;;0.47;0.47;;;;;;;;;;10193605;29;20036;-78
2023/11/11 03:39:34;;;;;;;1.42;0.60;;;;;;;;;;10189487;29;20509;-77
2023/11/11 03:44:37;;;;;;;1.33;0.93;;;;;;;;;;10182379;29;20047;-77
2023/11/11 03:49:40;;;;;;;1.40;1.10;;;;;;;;;;10183403;29;20096;-78
2023/11/11 03:54:45;;;;;;;0.95;0.80;;;;;;;;;;10158540;29;20048;-77
2023/11/11 03:59:49;;;;;;;0.90;0.80;;;;;;;;;;10170325;29;20133;-77
2023/11/11 04:04:53;;;;;;;2.25;0.93;;;;;;;;;;10166492;29;20643;-77
2023/11/11 04:09:59;;;;;;;1.42;0.75;;;;;;;;;;10168821;29;20087;-77
2023/11/11 04:15:04;;;;;;;2.72;0.90;;;;;;;;;;10157636;29;20048;-77
2023/11/11 04:20:10;;;;;;;1.52;1.10;;;;;;;;;;10170432;29;20052;-77
2023/11/11 04:25:16;;;;;;;2.25;1.00;;;;;;;;;;10169967;29;20048;-77
2023/11/11 04:30:20;;;;;;;1.87;1.13;;;;;;;;;;10162822;29;20058;-77
2023/11/11 04:35:23;;;;;;;1.73;0.80;;;;;;;;;;10177093;29;20315;-77
2023/11/11 04:40:31;;;;;;;2.45;0.80;;;;;;;;;;10184539;29;20140;-77
2023/11/11 04:45:35;;;;;;;2.45;1.00;;;;;;;;;;10168321;29;20052;-77
2023/11/11 04:50:39;;;;;;;2.15;0.90;;;;;;;;;;10184522;29;20052;-77
2023/11/11 04:55:44;;;;;;;0.85;0.75;;;;;;;;;;10182973;29;20059;-76
2023/11/11 05:00:47;;;;;;;0.80;0.70;;;;;;;;;;10183794;29;20457;-77
2023/11/11 05:05:51;;;;;;;0.77;0.70;;;;;;;;;;10165577;29;20079;-77
2023/11/11 05:10:56;;;;;;;1.20;0.85;;;;;;;;;;10179466;29;20052;-77
2023/11/11 05:16:10;;;;;;;0.83;0.70;;;;;;;;;;10191541;29;20445;-76
2023/11/11 05:21:16;;;;;;;5.15;0.90;;;;;;;;;;10178914;29;20068;-77
2023/11/11 05:26:21;;;;;;;1.67;0.93;;;;;;;;;;10190741;29;20052;-77
2023/11/11 05:31:25;;;;;;;1.08;0.77;;;;;;;;;;10182927;29;20071;-77
2023/11/11 05:36:28;;;;;;;1.33;0.65;;;;;;;;;;10191661;29;20055;-77
2023/11/11 05:41:34;;;;;;;0.77;0.47;;;;;;;;;;10168589;29;20135;-77
2023/11/11 05:46:39;;;;;;;1.07;0.50;;;;;;;;;;10178197;29;20087;-78
2023/11/11 05:51:43;;;;;;;0.60;0.50;;;;;;;;;;10194317;29;20110;-77
2023/11/11 05:56:48;;;;;;;0.40;0.40;;;;;;;;;;10181998;29;20047;-77
2023/11/11 06:01:51;;;;;;;1.08;0.70;;;;;;;;;;10171085;29;20518;-77
2023/11/11 06:06:56;;;;;;;1.05;0.57;;;;;;;;;;10195646;29;20520;-77
2023/11/11 06:12:01;;;;;;;0.57;0.50;;;;;;;;;;10185799;29;20052;-77
2023/11/11 06:17:05;;;;;;;0.95;0.60;;;;;;;;;;10192746;29;20125;-76
2023/11/11 06:22:09;;;;;;;0.95;0.55;;;;;;;;;;10172026;29;20076;-77
2023/11/11 06:27:14;;;;;;;0.98;0.50;;;;;;;;;;10186178;29;20056;-77
2023/11/11 06:32:18;;;;;;;0.47;0.40;;;;;;;;;;10184042;29;20079;-77
2023/11/11 06:37:21;;;;;;;0.40;0.40;;;;;;;;;;10197404;29;20051;-77
2023/11/11 06:42:26;;;;;;;0.32;0.32;;;;;;;;;;10171683;29;20057;-77
2023/11/11 06:47:30;;;;;;;0.50;0.50;;;;;;;;;;10186583;29;20048;-77
2023/11/11 06:52:35;;;;;;;0.30;0.30;;;;;;;;;;10190534;29;20295;-77
2023/11/11 06:57:40;;;;;;;0.30;0.30;;;;;;;;;;10189250;29;20056;-77
2023/11/11 07:02:44;;;;;;;0.45;0.30;;;;;;;;;;10195120;29;20055;-77
2023/11/11 07:07:48;;;;;;;1.75;0.50;;;;;;;;;;10175838;29;20048;-78
2023/11/11 07:12:53;;;;;;;1.10;0.77;;;;;;;;;;10194506;29;20064;-77
2023/11/11 07:17:57;;;;;;;1.13;0.52;;;;;;;;;;10194049;29;20048;-77
2023/11/11 07:23:00;;;;;;;0.75;0.60;;;;;;;;;;10151830;29;20524;-77
2023/11/11 07:28:06;;;;;;;0.68;0.60;;;;;;;;;;10195417;29;20052;-78
2023/11/11 07:33:09;;;;;;;3.20;0.98;;;;;;;;;;10188994;29;20047;-78
2023/11/11 07:38:14;;;;;;;2.42;0.90;;;;;;;;;;10182434;29;20055;-77
2023/11/11 07:43:21;;;;;;;2.33;0.98;;;;;;;;;;10194675;29;20111;-77
2023/11/11 07:48:25;;;;;;;1.77;0.70;;;;;;;;;;10187284;29;20853;-77
2023/11/11 07:53:30;;;;;;;3.53;1.13;;;;;;;;;;10187915;29;20051;-78
2023/11/11 07:58:35;;;;;;;2.65;1.67;;;;;;;;;;10193337;29;20291;-77
2023/11/11 08:03:42;;;;;;;5.65;1.80;;;;;;;;;;10173628;29;20055;-77
2023/11/11 08:08:51;;;;;;;3.63;1.73;;;;;;;;;;10173501;29;20064;-77
2023/11/11 08:13:58;;;;;;;3.40;1.55;;;;;;;;;;10166138;29;20088;-77
2023/11/11 08:19:04;;;;;;;4.65;1.20;;;;;;;;;;10171890;29;20096;-78
2023/11/11 08:24:12;;;;;;;3.60;1.80;;;;;;;;;;10185892;29;20044;-77
2023/11/11 08:29:16;;;;;;;2.25;1.60;;;;;;;;;;10195294;29;20058;-77
2023/11/11 08:34:25;;;;;;;4.18;1.88;;;;;;;;;;10195227;29;20039;-77
2023/11/11 08:39:28;;;;;;;3.92;2.45;;;;;;;;;;10172455;29;20039;-77
2023/11/11 08:44:33;;;;;;;3.58;1.90;;;;;;;;;;10190014;29;20047;-76
2023/11/11 08:49:37;;;;;;;3.13;2.05;;;;;;;;;;10179164;29;20493;-77
2023/11/11 08:54:40;;;;;;;3.55;1.73;;;;;;;;;;10190297;29;20047;-77
2023/11/11 08:59:53;;;;;;;3.10;1.60;;;;;;;;;;10184529;29;20044;-77
2023/11/11 09:05:01;;;;;;;3.15;1.92;;;;;;;;;;10187016;29;20059;-78
2023/11/11 09:10:06;;;;;;;2.53;1.48;;;;;;;;;;10191387;29;20233;-77
2023/11/11 09:15:12;;;;;;;5.00;2.40;;;;;;;;;;10168462;29;20047;-77
2023/11/11 09:20:15;;;;;;;3.70;1.88;;;;;;;;;;10193591;29;20056;-76
2023/11/11 09:25:22;;;;;;;2.10;1.50;;;;;;;;;;10164287;29;20059;-77
2023/11/11 09:30:27;;;;;;;4.60;2.53;;;;;;;;;;10267294;23;20056;-76
2023/11/11 09:35:32;;;;;;;3.70;2.22;;;;;;;;;;10182807;29;20052;-76
2023/11/11 09:40:35;;;;;;;2.67;2.05;;;;;;;;;;10183493;29;20070;-76
2023/11/11 09:45:41;;;;;;;3.85;1.80;;;;;;;;;;10179084;29;20067;-76
2023/11/11 09:50:49;;;;;;;2.78;1.80;;;;;;;;;;10184337;29;20055;-76
2023/11/11 09:55:53;;;;;;;3.92;2.03;;;;;;;;;;10186688;29;20095;-76
2023/11/11 10:00:58;;;;;;;2.38;1.50;;;;;;;;;;10189765;29;20126;-76
2023/11/11 10:06:05;;;;;;;2.45;1.50;;;;;;;;;;10189742;29;20051;-76
2023/11/11 10:11:10;;;;;;;2.97;1.50;;;;;;;;;;10187795;29;20413;-75
2023/11/11 10:16:21;;;;;;;5.10;1.88;;;;;;;;;;10174849;29;20088;-75
2023/11/11 10:21:26;;;;;;;3.03;1.42;;;;;;;;;;10185459;29;20506;-75
2023/11/11 10:26:29;;;;;;;2.33;1.60;;;;;;;;;;10180198;29;20052;-76
2023/11/11 10:31:36;;;;;;;3.50;1.63;;;;;;;;;;10193273;29;20167;-75
2023/11/11 10:36:41;;;;;;;2.45;1.60;;;;;;;;;;10175266;29;20040;-76
2023/11/11 10:41:46;;;;;;;6.15;1.70;;;;;;;;;;10191864;29;20271;-75
2023/11/11 10:46:51;;;;;;;4.15;1.50;;;;;;;;;;10188672;29;20051;-76
2023/11/11 10:51:56;;;;;;;3.42;1.75;;;;;;;;;;10171823;29;20112;-75
2023/11/11 10:57:01;;;;;;;3.10;1.40;;;;;;;;;;10197538;29;20462;-76
2023/11/11 11:02:10;;;;;;;6.13;1.60;;;;;;;;;;10180864;29;20047;-75
2023/11/11 11:07:23;;;;;;;2.30;1.10;;;;;;;;;;10167339;29;20394;-75
2023/11/11 11:12:33;;;;;;;4.78;2.50;;;;;;;;;;10181835;29;20058;-75
2023/11/11 11:17:43;;;;;;;4.65;2.67;;;;;;;;;;10188610;29;20615;-75
2023/11/11 11:22:49;;;;;;;3.38;1.70;;;;;;;;;;10163116;29;20043;-75
2023/11/11 11:28:22;;;;;;;4.68;2.30;;;;;;;;;;10189108;29;20545;-75
2023/11/11 11:33:28;;;;;;;3.42;2.47;;;;;;;;;;10171425;29;20056;-75
2023/11/11 11:38:33;;;;;;;7.20;3.38;;;;;;;;;;10188877;29;20052;-75
2023/11/11 11:43:39;;;;;;;6.07;3.38;;;;;;;;;;10189355;29;20147;-75
2023/11/11 11:48:53;;;;;;;4.00;2.47;;;;;;;;;;10181862;29;20048;-75
2023/11/11 11:53:56;;;;;;;4.05;1.50;;;;;;;;;;10167823;29;20055;-75
2023/11/11 11:59:03;;;;;;;5.80;2.53;;;;;;;;;;10198566;29;20401;-75
2023/11/11 12:04:08;;;;;;;2.97;2.00;;;;;;;;;;10177732;29;20773;-75
2023/11/11 12:09:22;;;;;;;2.43;1.40;;;;;;;;;;10171459;29;20050;-75
2023/11/11 12:14:29;;;;;;;3.15;1.80;;;;;;;;;;10184020;29;20302;-75
2023/11/11 12:19:38;;;;;;;6.00;1.23;;;;;;;;;;10170033;29;20134;-75
2023/11/11 12:24:54;;;;;;;1.80;1.15;;;;;;;;;;10161838;29;20066;-75
2023/11/11 12:29:58;;;;;;;2.25;1.52;;;;;;;;;;10178892;29;20052;-76
2023/11/11 12:35:03;;;;;;;3.00;1.60;;;;;;;;;;10179058;29;20044;-75
2023/11/11 12:40:07;;;;;;;4.78;1.50;;;;;;;;;;10158341;29;20048;-75
2023/11/11 12:45:16;;;;;;;3.83;1.60;;;;;;;;;;10168267;29;20063;-75
2023/11/11 12:50:31;;;;;;;3.22;1.77;;;;;;;;;;10161513;29;20405;-75
2023/11/11 12:55:35;;;;;;;1.95;1.20;;;;;;;;;;10151747;29;20592;-75
2023/11/11 13:00:49;;;;;;;2.65;1.30;;;;;;;;;;10155726;29;20391;-75
2023/11/11 13:05:54;;;;;;;1.42;1.13;;;;;;;;;;10169068;29;20052;-75
2023/11/11 13:11:02;;;;;;;0.95;0.65;;;;;;;;;;10177149;29;20054;-75
2023/11/11 13:16:10;;;;;;;2.33;1.15;;;;;;;;;;10183566;29;20112;-75
2023/11/11 13:21:16;;;;;;;2.50;1.10;;;;;;;;;;10139389;29;20059;-75
2023/11/11 13:26:20;;;;;;;1.35;0.88;;;;;;;;;;10127077;29;20060;-76
2023/11/11 13:31:24;;;;;;;0.98;0.90;;;;;;;;;;10176602;29;20055;-75
2023/11/11 13:36:31;;;;;;;1.30;1.00;;;;;;;;;;10176096;29;20056;-75
2023/11/11 13:41:36;;;;;;;;;;;;;;;;;;10161772;29;20131;-75
2023/11/11 13:46:39;;;;;;;2.80;1.13;;;;;;;;;;10166286;29;20308;-75
2023/11/11 13:51:45;;;;;;;4.40;2.20;;;;;;;;;;10153514;29;20047;-75
2023/11/11 13:56:53;;;;;;;4.95;2.40;;;;;;;;;;10152411;29;20509;-75
2023/11/11 14:01:57;;;;;;;3.30;1.60;;;;;;;;;;10174445;29;20048;-75
2023/11/11 14:07:08;;;;;;;4.95;2.63;;;;;;;;;;10171014;29;20148;-75
2023/11/11 14:12:11;;;;;;;4.50;1.55;;;;;;;;;;10164239;29;20059;-75
2023/11/11 14:17:16;;;;;;;3.35;1.98;;;;;;;;;;10175473;29;20095;-75
2023/11/11 14:22:26;;;;;;;2.63;1.40;;;;;;;;;;10146362;29;20135;-75
2023/11/11 14:27:31;;;;;;;1.92;1.50;;;;;;;;;;10163885;29;20147;-75
2023/11/11 14:33:18;;;;;;;;;;;;;;;;;;;;;
2023/11/11 14:38:56;;;;;;;3.15;1.73;;;;;;;;;;9947297;29;20082;-76
2023/11/11 15:18:05;;;;;;;1.42;1.00;;;;;;;;;;11378609;23;20044;-87
2023/11/11 15:23:11;;;;;;;2.70;1.10;;;;;;;;;;10135050;29;20099;-86
2023/11/11 15:34:40;;;;;;;;;;;;;;;;;;;;;
2023/11/11 15:40:54;;;;;;;1.50;0.80;;;;;;;;;;9957849;29;20080;-78
2023/11/11 15:46:54;;;;;;;;;;;;;;;;;;;;;
2023/11/11 15:52:47;;;;;;;;;;;;;;;;;;;;;
2023/11/11 15:58:14;;;;;;;0.95;0.63;;;;;;;;;;10127188;29;20121;-78
2023/11/11 16:03:59;;;;;;;0.90;0.80;;;;;;;;;;10145647;29;20039;-78
2023/11/11 16:09:28;;;;;;;0.63;0.57;;;;;;;;;;10029269;29;20048;-78
2023/11/11 16:15:06;;;;;;;;;;;;;;;;;;;;;
2023/11/11 16:21:22;;;;;;;;;;;;;;;;;;;;;
2023/11/11 16:33:36;;;;;;;1.80;1.40;;;;;;;;;;9885771;29;20046;-78
2023/11/11 16:39:37;;;;;;;;;;;;;;;;;;;;;
2023/11/11 16:45:21;;;;;;;5.22;3.22;;;;;;;;;;9771402;29;20054;-78
2023/11/11 17:52:30;;;;;;;1.20;1.00;;;;;;;;;;9984114;29;20133;-78
2023/11/11 17:58:09;;;;;;;0.85;0.85;;;;;;;;;;9964099;29;20059;-78
2023/11/11 18:04:03;;;;;;;;;;;;;;;;;;;;;
2023/11/11 18:28:54;;;;;;;1.92;1.30;;;;;;;;;;9912638;29;20196;-77
2023/11/11 18:41:25;;;;;;;4.88;1.75;;;;;;;;;;9947420;29;20049;-79
2023/11/11 18:47:46;;;;;;;;;;;;;;;;;;;;;
2023/11/11 19:06:12;;;;;;;;;;;;;;;;;;;;;
2023/11/11 19:12:32;;;;;;;;;;;;;;;;;;;;;
2023/11/11 19:18:23;;;;;;;;;;;;;;;;;;;;;
2023/11/11 19:30:11;;;;;;;6.05;3.30;;;;;;;;;;10026142;29;20518;-78
2023/11/11 19:35:42;;;;;;;5.40;3.15;;;;;;;;;;10139981;29;20048;-78
2023/11/11 19:41:43;;;;;;;5.47;2.80;;;;;;;;;;10067125;29;20459;-78
2023/11/11 19:47:27;;;;;;;5.68;2.85;;;;;;;;;;10119392;29;20044;-78
2023/11/11 19:54:12;;;;;;;;;;;;;;;;;;;;;
2023/11/11 20:13:49;;;;;;;;;;;;;;;;;;;;;
2023/11/11 20:56:20;;;;;;;6.00;3.33;;;;;;;;;;10251804;23;20053;-88
2023/11/11 21:01:30;;;;;;;4.68;2.92;;;;;;;;;;10152620;29;20107;-88
2023/11/11 21:06:33;;;;;;;3.65;2.50;;;;;;;;;;10147578;29;20053;-86
2023/11/11 21:11:38;;;;;;;3.78;2.05;;;;;;;;;;10148744;29;20053;-87
2023/11/11 21:16:43;;;;;;;3.63;2.13;;;;;;;;;;10162937;29;20413;-86
2023/11/11 21:21:52;;;;;;;3.83;1.88;;;;;;;;;;10151872;29;20049;-85
2023/11/11 21:26:57;;;;;;;2.88;1.90;;;;;;;;;;10189308;23;20056;-77
2023/11/11 21:32:01;;;;;;;1.70;1.60;;;;;;;;;;10171063;29;20287;-77
2023/11/11 21:37:04;;;;;;;1.92;1.45;;;;;;;;;;10178702;29;20051;-76
2023/11/11 21:42:09;;;;;;;2.63;1.75;;;;;;;;;;10178246;29;20112;-77
2023/11/11 21:47:14;;;;;;;2.03;1.80;;;;;;;;;;10162137;29;20077;-77
2023/11/11 21:52:17;;;;;;;3.58;1.70;;;;;;;;;;10176175;29;20623;-77
2023/11/11 21:57:22;;;;;;;2.55;1.70;;;;;;;;;;10173201;29;20605;-77
2023/11/11 22:02:25;;;;;;;4.50;2.25;;;;;;;;;;10177622;29;20048;-77
2023/11/11 22:07:29;;;;;;;3.90;2.47;;;;;;;;;;10167855;29;20052;-77
2023/11/11 22:12:33;;;;;;;4.78;2.08;;;;;;;;;;10177439;29;20100;-77
2023/11/11 22:17:37;;;;;;;3.08;2.10;;;;;;;;;;10169045;29;20055;-76
2023/11/11 22:22:41;;;;;;;3.42;2.00;;;;;;;;;;10169475;29;20072;-77
2023/11/11 22:27:46;;;;;;;2.88;2.00;;;;;;;;;;10191760;29;20083;-77
2023/11/11 22:32:50;;;;;;;3.10;1.60;;;;;;;;;;10186728;29;20056;-77
2023/11/11 22:37:54;;;;;;;3.33;2.05;;;;;;;;;;10183693;29;20060;-77
2023/11/11 22:42:58;;;;;;;3.35;1.80;;;;;;;;;;10191092;29;20036;-77
2023/11/11 22:48:02;;;;;;;3.22;1.67;;;;;;;;;;10193129;29;20047;-77
2023/11/11 22:53:08;;;;;;;3.33;2.13;;;;;;;;;;10192560;29;20735;-77
2023/11/11 22:58:12;;;;;;;3.05;2.08;;;;;;;;;;10179655;29;20062;-77
2023/11/11 23:03:16;;;;;;;2.20;1.73;;;;;;;;;;10183432;29;20481;-77
2023/11/11 23:08:22;;;;;;;3.60;2.17;;;;;;;;;;10169775;29;20059;-77
2023/11/11 23:13:29;;;;;;;3.17;2.20;;;;;;;;;;10178372;29;20155;-77
2023/11/11 23:18:33;;;;;;;4.15;2.47;;;;;;;;;;10178706;29;20044;-77
2023/11/11 23:23:37;;;;;;;3.72;2.13;;;;;;;;;;10188047;29;20048;-77
2023/11/11 23:28:42;;;;;;;3.88;2.72;;;;;;;;;;10195478;29;20055;-77
2023/11/11 23:33:45;;;;;;;2.85;2.05;;;;;;;;;;10195110;29;20059;-77
2023/11/11 23:38:49;;;;;;;3.40;2.35;;;;;;;;;;10183944;29;20059;-77
2023/11/11 23:43:54;;;;;;;2.25;1.85;;;;;;;;;;10184877;29;20051;-77
2023/11/11 23:48:57;;;;;;;2.28;1.73;;;;;;;;;;10182797;29;20052;-77
2023/11/11 23:54:01;;;;;;;2.45;1.98;;;;;;;;;;10192421;29;20405;-77
2023/11/11 23:59:06;;;;;;;2.63;2.05;;;;;;;;;;10190564;29;20113;-77
